Time;durP1;ratioP1;P1;durP2;ratioP2;P2;SDS_P1;SDS_P2;PMS_P1;PMS_P2;Temp;Humidity;BMP_temperature;BMP_pressure;BME280_temperature;BME280_humidity;BME280_pressure;Samples;Min_cycle;Max_cycle;Signal;HPM_P1;HPM_P2
2023/01/05 00:01:08;;;;;;;1.02;0.40;;;;;;;8.53;100.00;97676.22;5045773;28;20044;-63
2023/01/05 00:03:36;;;;;;;0.63;0.40;;;;;;;8.57;100.00;97672.00;5047837;28;20493;-64
2023/01/05 00:06:05;;;;;;;0.30;0.20;;;;;;;8.63;100.00;97660.28;5046570;28;20067;-64
2023/01/05 00:08:31;;;;;;;0.80;0.68;;;;;;;8.65;100.00;97668.13;5047920;28;20459;-63
2023/01/05 00:22:29;;;;;;;0.40;0.25;;;;;;;8.70;100.00;97673.69;5046918;28;20492;-64
2023/01/05 00:25:05;;;;;;;0.52;0.30;;;;;;;8.76;100.00;97680.00;5047234;28;20068;-64
2023/01/05 00:27:41;;;;;;;0.90;0.40;;;;;;;8.77;100.00;97673.56;5048027;28;20505;-64
2023/01/05 00:30:10;;;;;;;1.23;0.40;;;;;;;8.83;100.00;97668.06;5026567;28;20104;-64
2023/01/05 00:32:37;;;;;;;0.47;0.30;;;;;;;8.84;100.00;97658.91;5026462;28;20142;-64
2023/01/05 00:35:04;;;;;;;0.88;0.40;;;;;;;8.79;100.00;97658.78;5031592;28;20041;-64
2023/01/05 00:37:33;;;;;;;0.77;0.40;;;;;;;8.76;100.00;97648.44;5025958;28;20057;-64
2023/01/05 00:40:00;;;;;;;0.77;0.40;;;;;;;8.65;100.00;97636.59;5058697;28;20053;-64
2023/01/05 00:42:26;;;;;;;0.90;0.30;;;;;;;8.65;100.00;97643.84;5026273;28;20582;-64
2023/01/05 00:44:53;;;;;;;0.80;0.30;;;;;;;8.63;100.00;97652.19;5039470;28;20068;-64
2023/01/05 00:47:19;;;;;;;0.55;0.35;;;;;;;8.63;100.00;97633.31;5047068;28;20056;-64
2023/01/05 00:49:47;;;;;;;2.35;0.40;;;;;;;8.67;100.00;97644.44;5046846;28;20653;-64
2023/01/05 00:52:13;;;;;;;0.70;0.45;;;;;;;8.69;100.00;97635.06;5044840;28;20489;-64
2023/01/05 00:54:40;;;;;;;0.73;0.20;;;;;;;8.81;100.00;97636.97;5045148;28;20048;-64
2023/01/05 00:57:12;;;;;;;0.13;0.13;;;;;;;8.82;100.00;97638.59;5046399;28;20451;-64
2023/01/05 00:59:39;;;;;;;0.50;0.20;;;;;;;8.83;100.00;97634.84;5046262;28;20516;-64
2023/01/05 01:02:05;;;;;;;1.23;0.13;;;;;;;8.87;100.00;97633.31;5044280;28;20040;-64
2023/01/05 01:04:33;;;;;;;0.10;0.10;;;;;;;8.84;100.00;97629.19;5044598;28;20707;-64
2023/01/05 01:07:00;;;;;;;0.25;0.10;;;;;;;8.84;100.00;97633.75;5046577;28;20048;-64
2023/01/05 01:09:28;;;;;;;0.17;0.13;;;;;;;8.84;100.00;97622.97;5045625;28;20049;-64
2023/01/05 01:11:54;;;;;;;0.35;0.20;;;;;;;8.92;100.00;97633.41;5044172;28;20724;-64
2023/01/05 01:14:21;;;;;;;0.43;0.25;;;;;;;8.93;100.00;97628.84;5046320;28;20056;-64
2023/01/05 01:16:48;;;;;;;0.20;0.20;;;;;;;8.96;100.00;97640.00;5044665;28;20520;-64
2023/01/05 01:19:20;;;;;;;0.38;0.20;;;;;;;9.03;100.00;97647.19;5046557;28;20509;-64
2023/01/05 01:21:47;;;;;;;0.47;0.10;;;;;;;9.05;100.00;97640.47;5043966;28;20452;-64
2023/01/05 01:24:24;;;;;;;0.65;0.35;;;;;;;9.17;100.00;97626.97;5045158;28;20073;-64
2023/01/05 01:26:52;;;;;;;0.10;0.10;;;;;;;9.03;100.00;97629.06;5045217;28;20057;-64
2023/01/05 01:29:20;;;;;;;0.82;0.20;;;;;;;9.00;100.00;97620.63;5044334;28;20080;-64
2023/01/05 01:31:48;;;;;;;0.30;0.10;;;;;;;9.07;100.00;97632.94;5043725;28;20103;-64
2023/01/05 01:34:15;;;;;;;0.10;0.10;;;;;;;9.19;100.00;97634.81;5044584;28;20053;-64
2023/01/05 01:36:42;;;;;;;0.10;0.10;;;;;;;9.20;100.00;97620.25;5045761;28;20060;-64
2023/01/05 01:39:10;;;;;;;0.57;0.20;;;;;;;9.22;100.00;97620.84;5044851;28;20049;-65
2023/01/05 01:41:40;;;;;;;0.68;0.15;;;;;;;9.19;100.00;97622.16;5043415;28;20051;-64
2023/01/05 01:44:44;;;;;;;0.20;0.10;;;;;;;9.22;100.00;97615.44;5044639;28;20040;-64
2023/01/05 01:47:17;;;;;;;0.03;0.03;;;;;;;9.18;100.00;97608.88;5044278;28;20107;-64
2023/01/05 01:49:44;;;;;;;0.10;0.10;;;;;;;9.12;100.00;97605.25;5045865;28;20049;-64
2023/01/05 01:52:11;;;;;;;0.13;0.13;;;;;;;9.17;100.00;97607.22;5042640;28;20048;-64
2023/01/05 01:54:38;;;;;;;0.25;0.10;;;;;;;9.30;100.00;97616.97;5027473;28;20107;-64
2023/01/05 01:57:05;;;;;;;0.00;0.00;;;;;;;9.37;100.00;97623.06;5045703;28;20057;-64
2023/01/05 01:59:31;;;;;;;0.13;0.10;;;;;;;9.47;100.00;97635.97;5044121;28;20076;-64
2023/01/05 02:02:00;;;;;;;0.40;0.08;;;;;;;9.48;100.00;97608.69;5041858;28;20045;-64
2023/01/05 02:04:31;;;;;;;0.00;0.00;;;;;;;9.67;100.00;97607.69;5045535;28;20120;-64
2023/01/05 02:06:58;;;;;;;0.00;0.00;;;;;;;9.65;100.00;97613.34;5043275;28;20041;-64
2023/01/05 02:09:25;;;;;;;0.08;0.00;;;;;;;9.85;100.00;97609.41;5044653;28;20045;-64
2023/01/05 02:12:14;;;;;;;0.15;0.05;;;;;;;10.05;100.00;97600.00;5044443;28;20045;-64
2023/01/05 02:15:13;;;;;;;0.10;0.10;;;;;;;10.17;99.54;97599.97;5042400;28;20098;-64
2023/01/05 02:18:22;;;;;;;0.20;0.10;;;;;;;10.31;98.29;97586.94;5044430;28;20044;-64
2023/01/05 02:21:04;;;;;;;0.15;0.10;;;;;;;10.42;97.29;97605.00;4984568;28;20057;-64
2023/01/05 02:24:01;;;;;;;0.03;0.03;;;;;;;10.44;96.95;97602.03;4998015;28;20042;-65
2023/01/05 02:27:14;;;;;;;0.10;0.10;;;;;;;10.43;96.80;97592.28;5011130;28;20045;-64
2023/01/05 02:30:04;;;;;;;0.15;0.15;;;;;;;10.50;96.41;97590.25;5040172;28;20644;-64
2023/01/05 02:32:41;;;;;;;0.00;0.00;;;;;;;10.63;95.43;97581.81;5042786;28;20037;-64
2023/01/05 02:35:17;;;;;;;0.20;0.15;;;;;;;10.60;95.53;97603.97;5043666;28;20072;-64
2023/01/05 02:37:51;;;;;;;0.45;0.15;;;;;;;10.68;95.17;97608.13;5043874;28;20056;-64
2023/01/05 02:40:23;;;;;;;0.52;0.20;;;;;;;10.66;94.96;97616.50;5042710;28;20554;-64
2023/01/05 02:42:54;;;;;;;0.00;0.00;;;;;;;10.70;94.65;97602.47;5043499;28;20060;-65
2023/01/05 02:45:22;;;;;;;0.20;0.10;;;;;;;10.67;94.84;97609.22;5042105;28;20649;-64
2023/01/05 02:47:53;;;;;;;0.00;0.00;;;;;;;10.77;94.08;97614.78;5032041;28;20099;-64
2023/01/05 02:50:33;;;;;;;;;;;;;;;10.70;94.32;97605.19;5042286;28;20045;-64
2023/01/05 02:53:04;;;;;;;;;;;;;;;10.66;94.91;97604.88;5043888;28;19928;-64
2023/01/05 02:55:34;;;;;;;;;;;;;;;10.62;95.10;97601.81;5044751;28;19924;-64
2023/01/05 02:58:04;;;;;;;;;;;;;;;10.61;95.18;97600.19;5044318;28;19931;-64
2023/01/05 03:00:51;;;;;;;;;;;;;;;10.69;94.47;97608.97;5042977;28;20019;-64
2023/01/05 03:03:25;;;;;;;;;;;;;;;10.66;94.62;97604.88;5047858;28;19966;-64
2023/01/05 03:05:57;;;;;;;;;;;;;;;10.72;94.11;97608.47;5046338;28;19920;-64
2023/01/05 03:08:26;;;;;;;;;;;;;;;10.78;93.24;97608.31;5040719;28;19925;-64
2023/01/05 03:14:15;;;;;;;0.00;0.00;;;;;;;10.69;94.34;97612.47;5048562;28;20383;-64
2023/01/05 03:16:44;;;;;;;0.10;0.10;;;;;;;10.71;94.21;97607.66;5035578;28;20526;-64
2023/01/05 03:19:35;;;;;;;0.10;0.00;;;;;;;10.73;93.89;97604.69;5048515;28;20607;-64
2023/01/05 03:36:26;;;;;;;0.10;0.10;;;;;;;10.57;94.53;97611.78;5047802;28;20493;-64
2023/01/05 03:38:58;;;;;;;0.00;0.00;;;;;;;10.49;95.32;97613.81;5046946;28;20072;-64
2023/01/05 03:41:29;;;;;;;0.10;0.00;;;;;;;10.46;95.98;97621.59;5047775;28;20037;-64
2023/01/05 03:43:56;;;;;;;2.45;0.13;;;;;;;10.47;96.55;97634.88;5047345;28;20041;-64
2023/01/05 03:46:23;;;;;;;0.10;0.10;;;;;;;10.48;96.19;97620.28;5046117;28;20041;-64
2023/01/05 03:48:50;;;;;;;0.60;0.10;;;;;;;10.54;96.29;97613.06;5046327;28;20049;-64
2023/01/05 03:51:19;;;;;;;0.10;0.10;;;;;;;10.51;96.58;97608.97;5045582;28;20132;-64
2023/01/05 03:53:45;;;;;;;0.00;0.00;;;;;;;10.49;97.05;97611.09;5046704;28;20531;-64
2023/01/05 03:56:12;;;;;;;1.02;0.10;;;;;;;10.43;97.71;97611.22;5046307;28;20052;-64
2023/01/05 03:58:39;;;;;;;1.00;0.10;;;;;;;10.43;97.92;97603.13;5046707;28;20040;-64
2023/01/05 04:01:07;;;;;;;0.00;0.00;;;;;;;10.38;98.41;97617.38;5046286;28;20122;-65
2023/01/05 04:03:34;;;;;;;0.03;0.03;;;;;;;10.38;98.40;97609.25;5047693;28;20052;-64
2023/01/05 04:06:03;;;;;;;0.10;0.10;;;;;;;10.43;98.30;97612.03;5047237;28;20044;-64
2023/01/05 04:08:31;;;;;;;0.00;0.00;;;;;;;10.42;98.49;97618.53;5043945;28;20040;-65
2023/01/05 04:11:19;;;;;;;0.00;0.00;;;;;;;10.41;98.62;97617.72;5045620;28;20045;-64
2023/01/05 04:13:53;;;;;;;0.00;0.00;;;;;;;10.44;98.32;97607.47;5050763;28;20439;-65
2023/01/05 04:16:21;;;;;;;0.75;0.10;;;;;;;10.50;97.59;97604.63;5044721;28;20578;-64
2023/01/05 04:18:50;;;;;;;0.00;0.00;;;;;;;10.43;97.83;97612.03;5046935;28;20110;-64
2023/01/05 04:21:18;;;;;;;0.47;0.10;;;;;;;10.50;97.41;97612.75;5044766;28;20072;-64
2023/01/05 04:23:46;;;;;;;0.00;0.00;;;;;;;10.54;97.08;97613.06;5044975;28;20053;-64
2023/01/05 04:26:14;;;;;;;0.00;0.00;;;;;;;10.61;96.73;97611.00;5046015;28;20045;-64
2023/01/05 04:28:43;;;;;;;0.47;0.10;;;;;;;10.52;97.26;97616.03;5045991;28;20056;-64
2023/01/05 04:31:10;;;;;;;0.10;0.00;;;;;;;10.58;96.57;97618.81;5044055;28;20099;-64
2023/01/05 04:33:38;;;;;;;0.10;0.10;;;;;;;10.63;96.17;97613.47;5046607;28;20077;-64
2023/01/05 04:36:07;;;;;;;0.00;0.00;;;;;;;10.61;96.47;97621.03;5045442;28;20041;-64
2023/01/05 04:38:34;;;;;;;0.00;0.00;;;;;;;10.55;96.43;97625.56;5046086;28;20056;-65
2023/01/05 04:41:01;;;;;;;0.10;0.10;;;;;;;10.58;96.62;97635.06;5044726;28;20128;-64
2023/01/05 04:43:27;;;;;;;0.20;0.10;;;;;;;10.59;96.22;97628.56;5045940;28;20132;-64
2023/01/05 04:45:57;;;;;;;0.10;0.00;;;;;;;10.51;96.60;97625.19;5044764;28;20060;-64
2023/01/05 04:48:24;;;;;;;0.10;0.10;;;;;;;10.44;97.30;97635.38;5044132;28;20048;-64
2023/01/05 04:50:53;;;;;;;0.20;0.00;;;;;;;10.38;97.60;97631.72;5024537;28;20053;-65
2023/01/05 04:53:25;;;;;;;0.00;0.00;;;;;;;10.46;97.60;97640.56;5025859;28;20037;-64
2023/01/05 04:55:52;;;;;;;0.00;0.00;;;;;;;10.38;98.41;97637.16;5042257;28;20122;-63
2023/01/05 04:58:20;;;;;;;0.03;0.03;;;;;;;10.20;100.00;97657.13;5044736;28;20095;-63
2023/01/05 05:00:49;;;;;;;0.00;0.00;;;;;;;10.20;100.00;97659.81;5042723;28;20534;-63
2023/01/05 05:03:15;;;;;;;0.00;0.00;;;;;;;9.99;100.00;97664.84;5045561;28;20045;-63
2023/01/05 05:05:42;;;;;;;0.20;0.10;;;;;;;9.98;100.00;97660.50;5045875;28;20063;-63
2023/01/05 05:08:10;;;;;;;0.00;0.00;;;;;;;9.77;100.00;97656.59;5045167;28;20122;-63
2023/01/05 05:10:37;;;;;;;1.13;0.10;;;;;;;9.79;100.00;97672.56;5045356;28;20049;-63
2023/01/05 05:13:03;;;;;;;0.00;0.00;;;;;;;9.67;100.00;97670.72;5045341;28;20452;-63
2023/01/05 05:15:30;;;;;;;0.00;0.00;;;;;;;9.54;100.00;97689.91;5043647;28;20049;-63
2023/01/05 05:17:57;;;;;;;0.00;0.00;;;;;;;9.47;100.00;97676.53;5045507;28;20041;-62
2023/01/05 05:20:31;;;;;;;0.10;0.10;;;;;;;9.41;100.00;97674.75;5044367;28;20053;-64
2023/01/05 05:22:58;;;;;;;0.00;0.00;;;;;;;9.31;100.00;97686.16;5044612;28;20126;-64
2023/01/05 05:25:26;;;;;;;0.00;0.00;;;;;;;9.24;100.00;97681.69;5043698;28;20587;-63
2023/01/05 05:27:52;;;;;;;0.00;0.00;;;;;;;9.11;100.00;97695.44;5045268;28;20057;-63
2023/01/05 05:30:19;;;;;;;0.00;0.00;;;;;;;9.19;100.00;97692.41;5045644;28;20075;-64
2023/01/05 05:32:45;;;;;;;1.33;0.10;;;;;;;9.16;100.00;97710.94;5045274;28;20132;-62
2023/01/05 05:35:12;;;;;;;0.10;0.10;;;;;;;9.13;100.00;97712.22;5045638;28;20044;-63
2023/01/05 05:37:38;;;;;;;1.13;0.20;;;;;;;9.11;100.00;97709.75;5045953;28;20429;-62
2023/01/05 05:40:05;;;;;;;0.73;0.30;;;;;;;9.10;100.00;97702.72;5045532;28;20123;-63
2023/01/05 05:42:32;;;;;;;0.73;0.20;;;;;;;9.01;100.00;97719.50;5045473;28;20060;-61
2023/01/05 05:44:58;;;;;;;2.33;0.30;;;;;;;9.05;100.00;97724.22;5045492;28;20124;-62
2023/01/05 05:47:25;;;;;;;1.35;0.38;;;;;;;8.97;100.00;97717.28;5046293;28;20045;-63
2023/01/05 05:49:51;;;;;;;1.52;0.40;;;;;;;8.99;100.00;97722.44;5046594;28;20072;-63
2023/01/05 05:52:18;;;;;;;0.77;0.20;;;;;;;8.82;100.00;97723.09;5044661;28;20524;-64
2023/01/05 05:54:44;;;;;;;0.98;0.32;;;;;;;8.76;100.00;97729.44;5045619;28;20063;-62
2023/01/05 05:57:11;;;;;;;1.45;0.35;;;;;;;8.63;100.00;97724.25;5046383;28;20037;-62
2023/01/05 05:59:37;;;;;;;0.95;0.57;;;;;;;8.63;100.00;97741.28;5045478;28;20045;-61
2023/01/05 06:02:04;;;;;;;5.38;0.60;;;;;;;8.56;100.00;97744.03;5045193;28;20207;-64
2023/01/05 06:04:30;;;;;;;1.15;0.90;;;;;;;8.58;100.00;97750.06;5045337;28;20048;-62
2023/01/05 06:06:57;;;;;;;2.60;0.50;;;;;;;8.58;100.00;97738.41;5044248;28;20041;-62
2023/01/05 06:09:23;;;;;;;4.57;0.70;;;;;;;8.51;100.00;97753.88;5045966;28;20080;-63
2023/01/05 06:11:50;;;;;;;1.70;0.45;;;;;;;8.51;100.00;97748.47;5044731;28;20084;-64
2023/01/05 06:14:17;;;;;;;3.15;0.63;;;;;;;8.42;100.00;97762.28;5045563;28;20049;-62
2023/01/05 06:16:44;;;;;;;2.75;0.98;;;;;;;8.47;100.00;97748.09;5045958;28;20116;-63
2023/01/05 06:19:11;;;;;;;5.22;0.65;;;;;;;8.44;100.00;97765.56;5045354;28;20128;-62
2023/01/05 06:21:37;;;;;;;2.88;0.63;;;;;;;8.42;100.00;97773.09;5044100;28;20488;-62
2023/01/05 06:24:04;;;;;;;1.85;0.60;;;;;;;8.46;100.00;97789.63;5046114;28;20087;-64
2023/01/05 06:26:31;;;;;;;1.45;0.40;;;;;;;8.53;100.00;97771.50;5045223;28;20049;-64
2023/01/05 06:28:57;;;;;;;2.75;0.60;;;;;;;8.57;100.00;97767.31;5045377;28;20494;-62
2023/01/05 06:31:24;;;;;;;2.05;0.70;;;;;;;8.61;100.00;97786.56;5043590;28;20053;-63
2023/01/05 06:33:50;;;;;;;2.70;0.68;;;;;;;8.55;100.00;97796.38;5045545;28;20072;-64
2023/01/05 06:36:17;;;;;;;3.88;0.75;;;;;;;8.53;100.00;97808.47;5044312;28;20470;-64
2023/01/05 06:38:43;;;;;;;3.72;0.90;;;;;;;8.55;100.00;97806.38;5045517;28;20076;-63
2023/01/05 06:41:10;;;;;;;6.40;1.08;;;;;;;8.43;100.00;97785.53;5043926;28;20079;-63
2023/01/05 06:43:37;;;;;;;2.22;0.93;;;;;;;8.46;100.00;97797.72;5044823;28;20086;-63
2023/01/05 06:46:03;;;;;;;2.47;0.70;;;;;;;8.40;100.00;97806.75;5044681;28;20650;-64
2023/01/05 06:48:30;;;;;;;2.15;0.70;;;;;;;8.36;100.00;97802.84;5045135;28;20632;-62
2023/01/05 06:50:56;;;;;;;11.68;2.00;;;;;;;8.31;100.00;97808.91;5043412;28;20044;-63
2023/01/05 06:53:23;;;;;;;5.07;0.80;;;;;;;8.29;100.00;97813.72;5045646;28;20052;-64
2023/01/05 06:55:49;;;;;;;3.58;1.00;;;;;;;8.24;100.00;97816.25;5044928;28;20080;-63
2023/01/05 06:58:16;;;;;;;3.55;1.05;;;;;;;8.19;100.00;97809.66;5044522;28;20049;-64
2023/01/05 07:00:42;;;;;;;3.53;1.00;;;;;;;8.27;100.00;97837.41;5042537;28;20053;-63
2023/01/05 07:03:11;;;;;;;4.30;1.00;;;;;;;8.28;100.00;97822.84;5045753;28;20049;-63
2023/01/05 07:05:39;;;;;;;4.40;1.00;;;;;;;8.32;100.00;97819.50;5044190;28;20682;-63
2023/01/05 07:08:06;;;;;;;1.73;0.77;;;;;;;8.30;100.00;97818.88;5045540;28;20090;-62
2023/01/05 07:10:32;;;;;;;1.85;0.82;;;;;;;8.43;100.00;97817.06;5044434;28;20049;-62
2023/01/05 07:12:59;;;;;;;4.03;0.90;;;;;;;8.54;100.00;97824.44;5047870;28;20124;-63
2023/01/05 07:15:25;;;;;;;2.67;1.00;;;;;;;8.61;100.00;97832.44;5045036;28;20045;-63
2023/01/05 07:17:52;;;;;;;3.03;0.70;;;;;;;8.65;100.00;97832.81;5045059;28;20467;-62
2023/01/05 07:20:18;;;;;;;3.47;0.90;;;;;;;8.63;100.00;97816.03;5044054;28;20055;-63
2023/01/05 07:22:45;;;;;;;3.88;0.80;;;;;;;8.65;100.00;97822.00;5044008;28;20455;-62
2023/01/05 07:25:11;;;;;;;5.10;0.75;;;;;;;8.67;100.00;97815.31;5044474;28;20102;-64
2023/01/05 07:27:38;;;;;;;4.78;1.23;;;;;;;8.65;100.00;97816.59;5045236;28;20073;-62
2023/01/05 07:30:05;;;;;;;4.57;1.02;;;;;;;8.63;100.00;97818.72;5044791;28;20102;-62
2023/01/05 07:32:32;;;;;;;7.10;1.40;;;;;;;8.64;100.00;97812.25;5043529;28;20064;-62
2023/01/05 07:34:58;;;;;;;3.92;0.77;;;;;;;8.62;100.00;97807.09;5043842;28;20045;-62
2023/01/05 07:37:25;;;;;;;5.03;0.95;;;;;;;8.62;100.00;97809.78;5043979;28;20072;-62
2023/01/05 07:39:51;;;;;;;4.32;0.95;;;;;;;8.70;100.00;97816.78;5044679;28;20116;-62
2023/01/05 07:42:18;;;;;;;4.53;1.20;;;;;;;8.70;100.00;97817.56;5041836;28;20487;-62
2023/01/05 07:44:46;;;;;;;6.78;1.20;;;;;;;8.67;100.00;97812.63;5039045;28;20163;-62
2023/01/05 07:47:13;;;;;;;6.00;1.00;;;;;;;8.68;100.00;97827.78;5041503;28;20048;-61
2023/01/05 07:49:39;;;;;;;5.63;1.42;;;;;;;8.67;100.00;97815.31;5042662;28;20049;-61
2023/01/05 07:52:06;;;;;;;4.85;1.17;;;;;;;8.60;100.00;97830.81;5043438;28;20083;-62
2023/01/05 07:54:32;;;;;;;3.00;1.10;;;;;;;8.58;100.00;97822.09;5043466;28;20049;-62
2023/01/05 07:56:59;;;;;;;6.45;1.92;;;;;;;8.57;100.00;97826.69;5044368;28;20044;-62
2023/01/05 07:59:25;;;;;;;4.30;1.00;;;;;;;8.57;100.00;97847.44;5044949;28;20060;-62
2023/01/05 08:01:52;;;;;;;3.80;1.53;;;;;;;8.57;100.00;97847.44;5045112;28;20724;-62
2023/01/05 08:04:19;;;;;;;4.30;1.95;;;;;;;8.63;100.00;97859.22;5039096;28;20048;-62
2023/01/05 08:06:46;;;;;;;5.95;1.25;;;;;;;8.69;100.00;97856.44;5013931;28;20131;-61
2023/01/05 08:11:57;;;;;;;4.05;0.90;;;;;;;8.59;100.00;97850.75;5047621;28;20143;-62
2023/01/05 08:14:24;;;;;;;4.15;1.08;;;;;;;8.52;100.00;97856.19;5045578;28;20059;-62
2023/01/05 08:16:50;;;;;;;8.45;1.50;;;;;;;8.51;100.00;97857.25;5046322;28;20179;-61
2023/01/05 08:19:18;;;;;;;6.18;1.30;;;;;;;8.51;100.00;97859.13;5044886;28;20045;-62
2023/01/05 08:21:45;;;;;;;3.60;1.02;;;;;;;8.53;100.00;97857.88;5044967;28;20566;-61
2023/01/05 08:24:11;;;;;;;6.63;1.40;;;;;;;8.54;100.00;97870.31;5045696;28;20107;-61
2023/01/05 08:26:38;;;;;;;8.70;1.85;;;;;;;8.55;100.00;97869.25;5045489;28;20092;-62
2023/01/05 08:29:05;;;;;;;3.90;1.42;;;;;;;8.63;100.00;97878.09;5037643;28;20053;-62
2023/01/05 08:31:36;;;;;;;6.18;1.65;;;;;;;8.60;100.00;97882.09;5044122;28;20083;-62
2023/01/05 08:34:04;;;;;;;7.60;1.23;;;;;;;8.63;100.00;97881.66;5032996;28;20049;-61
2023/01/05 08:36:32;;;;;;;11.38;1.80;;;;;;;8.67;100.00;97885.50;5045542;28;20740;-62
2023/01/05 08:39:00;;;;;;;11.82;1.95;;;;;;;8.65;100.00;97882.22;5045748;28;20441;-62
2023/01/05 08:41:30;;;;;;;7.53;1.30;;;;;;;8.71;100.00;97894.81;5043327;28;20060;-62
2023/01/05 08:43:59;;;;;;;5.50;1.00;;;;;;;8.63;100.00;97887.03;5043056;28;20127;-61
2023/01/05 08:46:28;;;;;;;10.38;1.40;;;;;;;8.66;100.00;97888.47;5044248;28;20078;-62
2023/01/05 08:48:57;;;;;;;8.77;1.20;;;;;;;8.57;100.00;97886.06;5046225;28;20194;-63
2023/01/05 08:51:23;;;;;;;6.57;1.10;;;;;;;8.58;100.00;97909.31;5040308;28;20048;-61
2023/01/05 08:53:50;;;;;;;11.63;2.50;;;;;;;8.62;100.00;97906.16;5044175;28;20164;-62
2023/01/05 08:56:18;;;;;;;7.45;1.15;;;;;;;8.71;99.25;97913.72;5044190;28;20677;-65
2023/01/05 08:58:44;;;;;;;6.88;2.75;;;;;;;8.70;98.95;97917.47;5044030;28;20041;-64
2023/01/05 09:01:14;;;;;;;7.72;1.45;;;;;;;8.70;97.20;97928.25;5042926;28;20045;-65
2023/01/05 09:03:40;;;;;;;10.32;1.67;;;;;;;8.74;96.19;97930.53;5025676;28;20068;-61
2023/01/05 09:06:10;;;;;;;6.75;1.45;;;;;;;8.69;96.25;97933.88;5038385;28;20053;-62
2023/01/05 09:08:39;;;;;;;6.00;1.25;;;;;;;8.67;96.17;97938.69;5042443;28;20045;-63
2023/01/05 09:11:11;;;;;;;3.58;0.90;;;;;;;8.74;94.22;97944.84;5042677;28;20052;-61
2023/01/05 09:13:39;;;;;;;7.75;1.52;;;;;;;8.73;94.27;97951.28;5031556;28;20049;-62
2023/01/05 09:16:12;;;;;;;9.02;1.50;;;;;;;8.70;93.07;97951.75;5043058;28;20067;-61
2023/01/05 09:18:40;;;;;;;11.40;1.60;;;;;;;8.76;92.27;97964.34;5044064;28;20076;-61
2023/01/05 09:21:08;;;;;;;5.15;0.93;;;;;;;8.68;91.59;97962.78;5037693;28;20075;-62
2023/01/05 09:23:35;;;;;;;8.35;1.52;;;;;;;8.62;93.37;97970.94;5044055;28;20037;-62
2023/01/05 09:26:07;;;;;;;10.07;1.40;;;;;;;8.59;93.34;97964.13;5044160;28;20052;-61
2023/01/05 09:28:35;;;;;;;8.55;1.10;;;;;;;8.54;92.70;97969.34;5042203;28;20049;-60
2023/01/05 09:31:18;;;;;;;7.70;1.52;;;;;;;8.57;92.87;97955.41;5005739;28;20053;-62
2023/01/05 09:33:45;;;;;;;5.25;1.15;;;;;;;8.63;92.09;97967.19;5030894;28;20081;-62
2023/01/05 09:36:15;;;;;;;7.93;1.00;;;;;;;8.61;92.37;97964.72;5042810;28;20563;-61
2023/01/05 09:38:42;;;;;;;10.82;1.98;;;;;;;8.57;92.30;97968.91;5042332;28;20132;-61
2023/01/05 09:41:23;;;;;;;11.07;1.70;;;;;;;8.65;92.08;97971.31;5039109;28;20099;-62
2023/01/05 09:43:56;;;;;;;5.53;1.20;;;;;;;8.74;90.92;97962.91;5042805;28;20099;-61
2023/01/05 09:46:32;;;;;;;10.48;1.40;;;;;;;8.73;90.89;97972.06;5043330;28;20045;-62
2023/01/05 09:49:02;;;;;;;8.32;1.45;;;;;;;8.75;90.36;97981.59;5043051;28;20740;-62
2023/01/05 09:51:29;;;;;;;9.57;1.50;;;;;;;8.68;91.39;97972.75;5041045;28;20455;-61
2023/01/05 09:53:58;;;;;;;9.27;1.58;;;;;;;8.74;90.35;97981.81;5042473;28;20060;-62
2023/01/05 09:56:33;;;;;;;9.43;2.28;;;;;;;8.68;91.05;97983.53;5042554;28;20072;-61
2023/01/05 09:59:34;;;;;;;11.30;1.48;;;;;;;8.77;91.37;97987.59;5039875;28;20052;-61
2023/01/05 10:02:13;;;;;;;6.38;1.17;;;;;;;8.76;89.98;97990.50;5041496;28;20055;-62
2023/01/05 10:04:40;;;;;;;10.02;1.80;;;;;;;8.80;89.45;97978.19;5042514;28;20555;-61
2023/01/05 10:07:27;;;;;;;8.38;1.98;;;;;;;8.79;89.12;97974.69;5015637;28;20106;-62
2023/01/05 10:09:59;;;;;;;10.48;2.45;;;;;;;8.91;89.64;97974.75;5064730;28;20049;-63
2023/01/05 10:15:28;;;;;;;12.80;2.10;;;;;;;9.02;86.83;97975.88;5032698;28;20093;-61
2023/01/05 10:17:55;;;;;;;13.68;1.90;;;;;;;9.13;87.00;97966.19;5043438;28;20107;-61
2023/01/05 10:20:48;;;;;;;9.80;1.75;;;;;;;9.10;86.14;97953.94;5042399;28;20579;-60
2023/01/05 10:23:31;;;;;;;11.73;2.13;;;;;;;9.15;87.27;97960.56;5033133;28;20044;-61
2023/01/05 10:26:23;;;;;;;9.68;1.67;;;;;;;9.06;87.35;97958.16;5042672;28;20076;-61
2023/01/05 10:28:58;;;;;;;8.38;1.40;;;;;;;9.19;85.85;97954.47;5043312;28;20133;-61
2023/01/05 10:31:53;;;;;;;7.53;1.50;;;;;;;9.21;85.98;97954.22;5028370;28;20076;-62
2023/01/05 10:34:21;;;;;;;11.63;2.17;;;;;;;9.09;86.69;97955.00;5041996;28;20095;-61
2023/01/05 10:36:51;;;;;;;7.13;1.42;;;;;;;9.11;86.32;97961.00;5042801;28;20045;-61
2023/01/05 10:39:54;;;;;;;13.02;1.40;;;;;;;9.22;85.23;97966.69;5042612;28;20045;-61
2023/01/05 10:42:44;;;;;;;11.55;1.52;;;;;;;9.30;84.46;97960.13;5041068;28;20132;-61
2023/01/05 10:45:14;;;;;;;7.05;1.70;;;;;;;9.27;84.27;97957.88;5042308;28;20037;-61
2023/01/05 10:47:43;;;;;;;11.73;2.13;;;;;;;9.24;84.12;97965.41;5046109;28;20148;-61
2023/01/05 10:50:26;;;;;;;10.63;1.60;;;;;;;9.23;84.75;97952.97;5044423;28;20696;-62
2023/01/05 10:52:53;;;;;;;15.65;2.53;;;;;;;9.32;84.27;97955.34;5043713;28;20060;-61
2023/01/05 10:55:21;;;;;;;10.50;1.52;;;;;;;9.41;83.07;97950.44;5041025;28;20110;-63
2023/01/05 10:57:48;;;;;;;10.63;1.27;;;;;;;9.40;83.35;97957.69;5042205;28;20056;-63
2023/01/05 11:00:19;;;;;;;10.80;1.80;;;;;;;9.40;84.61;97952.28;5043099;28;20760;-62
2023/01/05 11:03:01;;;;;;;;;;;;;;;9.35;84.12;97952.16;5039653;28;20045;-61
2023/01/05 11:05:44;;;;;;;9.00;2.05;;;;;;;9.43;84.36;97953.75;5035923;28;20358;-60
2023/01/05 11:08:20;;;;;;;6.20;1.08;;;;;;;9.47;82.49;97961.13;5040687;28;20572;-60
2023/01/05 11:10:55;;;;;;;9.70;2.03;;;;;;;9.41;82.36;97970.19;5041095;28;20071;-60
2023/01/05 11:13:52;;;;;;;9.65;1.75;;;;;;;9.28;83.27;97970.38;5044146;28;20045;-59
2023/01/05 11:16:33;;;;;;;9.70;1.70;;;;;;;9.37;82.53;97966.28;5040468;28;20044;-61
2023/01/05 11:19:02;;;;;;;5.82;1.42;;;;;;;9.32;83.26;97958.06;5042236;28;20140;-62
2023/01/05 11:21:34;;;;;;;6.50;1.70;;;;;;;9.43;82.64;97956.44;5041335;28;20053;-61
2023/01/05 11:24:02;;;;;;;10.65;1.77;;;;;;;9.33;83.12;97960.50;5031303;28;20037;-62
2023/01/05 11:26:35;;;;;;;13.13;2.25;;;;;;;9.42;82.17;97955.59;5045728;28;20033;-62
2023/01/05 11:29:08;;;;;;;9.88;1.50;;;;;;;9.39;83.19;97964.16;5045859;28;20083;-60
2023/01/05 11:31:55;;;;;;;10.15;1.75;;;;;;;9.41;81.50;97964.78;5043911;28;20037;-60
2023/01/05 11:34:41;;;;;;;9.80;1.80;;;;;;;9.29;82.62;97961.19;5048267;28;20593;-62
2023/01/05 11:37:10;;;;;;;8.63;2.22;;;;;;;9.31;83.14;97959.09;5048144;28;20424;-62
2023/01/05 11:39:40;;;;;;;10.55;1.70;;;;;;;9.36;81.85;97968.16;5048731;28;20049;-61
2023/01/05 11:42:18;;;;;;;13.68;2.10;;;;;;;9.32;81.43;97972.38;5046897;28;20143;-61
2023/01/05 11:44:57;;;;;;;8.23;1.50;;;;;;;9.31;82.04;97954.50;5047290;28;20103;-61
2023/01/05 11:47:50;;;;;;;5.63;1.17;;;;;;;9.34;81.84;97966.75;5048779;28;20048;-61
2023/01/05 11:50:26;;;;;;;8.38;1.75;;;;;;;9.30;82.01;97979.06;5046626;28;20044;-62
2023/01/05 11:52:55;;;;;;;13.18;2.40;;;;;;;9.28;81.78;97968.47;5048147;28;20119;-62
2023/01/05 11:55:29;;;;;;;13.23;1.95;;;;;;;9.26;82.93;97967.06;5045538;28;20052;-62
2023/01/05 11:58:20;;;;;;;10.10;1.63;;;;;;;9.19;83.25;97967.16;5047370;28;20550;-60
2023/01/05 12:01:15;;;;;;;16.30;2.45;;;;;;;9.27;83.02;97976.81;5046888;28;20041;-61
2023/01/05 12:04:02;;;;;;;5.55;1.10;;;;;;;9.32;82.42;97963.47;5048084;28;20120;-60
2023/01/05 12:06:48;;;;;;;12.93;1.98;;;;;;;9.36;82.08;97961.91;5047305;28;20178;-61
2023/01/05 12:09:21;;;;;;;11.32;1.40;;;;;;;9.32;82.90;97964.25;5048530;28;20039;-61
2023/01/05 12:12:06;;;;;;;9.13;1.77;;;;;;;9.41;82.33;97972.03;5035294;28;20044;-62
2023/01/05 12:15:03;;;;;;;15.43;2.95;;;;;;;9.35;82.26;97960.28;5043334;28;20138;-59
2023/01/05 12:17:43;;;;;;;9.20;1.60;;;;;;;9.35;82.48;97968.38;5043505;28;20385;-59
2023/01/05 12:20:34;;;;;;;7.63;1.88;;;;;;;9.23;83.68;97971.03;5048906;28;20049;-60
2023/01/05 12:23:23;;;;;;;10.02;2.47;;;;;;;9.23;83.78;97976.44;5044500;28;20053;-59
2023/01/05 12:25:54;;;;;;;11.95;1.75;;;;;;;9.40;82.71;97968.50;5041459;28;20049;-58
2023/01/05 12:28:45;;;;;;;11.82;1.80;;;;;;;9.35;83.69;97979.19;5044038;28;20052;-60
2023/01/05 12:31:54;;;;;;;11.82;2.35;;;;;;;9.33;83.61;97970.50;5043918;28;20099;-57